Time;durP1;ratioP1;P1;durP2;ratioP2;P2;SDS_P1;SDS_P2;PMS_P1;PMS_P2;Temp;Humidity;BMP_temperature;BMP_pressure;BME280_temperature;BME280_humidity;BME280_pressure;Samples;Min_cycle;Max_cycle;Signal;HPM_P1;HPM_P2
2022/06/17 00:01:03;;;;;;;22.30;11.65;;;;;;;15.19;83.72;102177.19;5066777;28;19920;-79
2022/06/17 00:03:31;;;;;;;23.38;12.32;;;;;;;15.17;83.97;102169.19;5066125;28;20051;-79
2022/06/17 00:05:59;;;;;;;22.15;11.35;;;;;;;15.16;83.22;102182.84;5067053;28;20021;-79
2022/06/17 00:08:30;;;;;;;20.55;11.48;;;;;;;15.12;83.37;102176.75;5070039;28;20039;-77
2022/06/17 00:10:55;;;;;;;21.90;12.18;;;;;;;15.11;83.03;102163.34;5067571;28;20028;-78
2022/06/17 00:13:22;;;;;;;21.67;11.05;;;;;;;15.11;82.94;102168.75;5069268;28;20040;-79
2022/06/17 00:15:47;;;;;;;23.10;11.65;;;;;;;15.09;83.41;102170.72;5071927;28;20028;-79
2022/06/17 00:18:14;;;;;;;22.85;11.98;;;;;;;15.06;83.53;102176.34;5071252;28;20377;-79
2022/06/17 00:20:40;;;;;;;22.38;11.35;;;;;;;15.00;83.37;102183.06;5067642;28;20081;-79
2022/06/17 00:23:14;;;;;;;22.65;11.65;;;;;;;14.97;83.81;102178.72;5068719;28;20036;-78
2022/06/17 00:25:42;;;;;;;22.58;11.90;;;;;;;14.93;84.09;102187.19;5071272;28;20119;-78
2022/06/17 00:28:15;;;;;;;25.55;12.70;;;;;;;14.93;84.51;102182.63;5071562;28;20045;-78
2022/06/17 00:30:40;;;;;;;26.73;13.05;;;;;;;14.91;84.67;102183.72;5067725;28;20123;-79
2022/06/17 00:33:07;;;;;;;23.90;12.23;;;;;;;14.90;84.55;102177.41;5067995;28;20036;-79
2022/06/17 00:35:36;;;;;;;23.30;13.15;;;;;;;14.87;84.50;102180.34;5072007;28;20043;-79
2022/06/17 00:38:02;;;;;;;;;;;;;;;14.96;81.54;102182.41;5069904;28;20512;-79
2022/06/17 00:40:31;;;;;;;26.15;14.85;;;;;;;14.82;83.93;102186.09;5068291;28;19939;-79
2022/06/17 00:43:00;;;;;;;23.08;13.45;;;;;;;14.80;83.96;102198.88;5069907;28;20032;-79
2022/06/17 00:45:29;;;;;;;23.02;13.27;;;;;;;14.80;83.94;102196.16;5071512;28;20028;-78
2022/06/17 00:48:24;;;;;;;24.88;13.27;;;;;;;14.80;83.23;102188.06;5070693;28;20361;-78
2022/06/17 00:50:57;;;;;;;22.88;12.15;;;;;;;14.76;83.84;102189.22;5053942;28;20512;-78
2022/06/17 00:53:27;;;;;;;22.65;12.38;;;;;;;14.77;84.49;102179.25;5065798;28;20028;-78
2022/06/17 00:56:15;;;;;;;23.92;11.85;;;;;;;14.80;83.90;102169.09;5068947;28;20422;-78
2022/06/17 00:58:59;;;;;;;21.50;11.93;;;;;;;14.83;84.47;102159.88;5069694;28;20382;-78
2022/06/17 01:01:26;;;;;;;22.13;11.52;;;;;;;14.81;85.41;102176.22;5070141;28;20079;-78
2022/06/17 01:03:53;;;;;;;24.63;12.35;;;;;;;14.79;85.32;102190.88;5068739;28;20032;-78
2022/06/17 01:06:24;;;;;;;24.48;11.70;;;;;;;14.79;84.80;102183.59;5069408;28;20035;-79
2022/06/17 01:11:51;;;;;;;22.75;11.43;;;;;;;14.77;84.59;102180.13;5071207;28;20101;-77
2022/06/17 01:14:19;;;;;;;21.35;11.82;;;;;;;14.74;84.90;102180.34;5066715;28;20475;-77
2022/06/17 01:16:44;;;;;;;21.33;12.48;;;;;;;14.71;84.84;102183.25;5068788;28;20027;-77
2022/06/17 01:19:18;;;;;;;23.98;12.07;;;;;;;14.67;85.04;102187.16;5063017;28;20119;-77
2022/06/17 01:21:51;;;;;;;24.90;11.57;;;;;;;14.63;84.98;102189.22;5067428;28;20032;-77
2022/06/17 01:24:18;;;;;;;21.30;10.95;;;;;;;14.59;85.44;102179.53;5069275;28;20064;-78
2022/06/17 01:26:43;;;;;;;22.92;11.60;;;;;;;14.57;85.25;102177.91;5067701;28;20024;-78
2022/06/17 01:29:15;;;;;;;22.95;12.13;;;;;;;14.55;85.33;102178.00;5068745;28;20116;-78
2022/06/17 01:31:48;;;;;;;23.35;11.52;;;;;;;14.55;85.97;102172.59;5066562;28;20075;-79
2022/06/17 01:34:14;;;;;;;21.08;11.65;;;;;;;14.50;85.60;102167.50;5069230;28;20468;-79
2022/06/17 01:36:41;;;;;;;21.35;10.80;;;;;;;14.46;85.69;102170.53;5069026;28;20028;-79
2022/06/17 01:39:06;;;;;;;21.58;11.13;;;;;;;14.42;85.54;102177.13;5070687;28;20040;-78
2022/06/17 01:41:33;;;;;;;20.92;10.85;;;;;;;14.40;86.05;102179.09;5065850;28;20177;-78
2022/06/17 01:44:07;;;;;;;21.05;10.85;;;;;;;14.37;85.85;102180.16;5070896;28;20028;-78
2022/06/17 01:46:40;;;;;;;22.83;11.25;;;;;;;14.36;85.71;102181.09;5070737;28;20021;-78
2022/06/17 01:49:14;;;;;;;22.40;11.38;;;;;;;14.31;85.71;102175.16;5070325;28;20380;-78
2022/06/17 01:51:44;;;;;;;23.00;11.05;;;;;;;14.28;85.86;102178.94;5069323;28;20107;-78
2022/06/17 01:54:15;;;;;;;21.77;10.45;;;;;;;14.27;85.84;102179.91;5067448;28;20335;-78
2022/06/17 01:56:44;;;;;;;23.00;11.60;;;;;;;14.24;85.93;102184.66;5069837;28;20349;-78
2022/06/17 01:59:15;;;;;;;22.77;10.67;;;;;;;14.24;85.80;102182.81;5064788;28;20040;-78
2022/06/17 02:01:47;;;;;;;21.67;10.82;;;;;;;14.23;86.47;102178.41;5065247;28;20048;-78
2022/06/17 02:04:18;;;;;;;21.67;10.65;;;;;;;14.23;86.33;102183.81;5068325;28;20024;-78
2022/06/17 02:06:50;;;;;;;22.08;11.88;;;;;;;14.21;86.15;102179.47;5067731;28;20020;-78
2022/06/17 02:09:16;;;;;;;22.95;11.43;;;;;;;14.20;86.36;102183.13;5070380;28;20040;-79
2022/06/17 02:11:41;;;;;;;22.35;11.88;;;;;;;14.20;86.43;102175.88;5066333;28;20024;-79
2022/06/17 02:14:08;;;;;;;20.77;10.25;;;;;;;14.17;86.10;102176.09;5066199;28;20502;-78
2022/06/17 02:16:42;;;;;;;20.48;11.15;;;;;;;14.15;86.71;102168.06;5066400;28;20029;-78
2022/06/17 02:19:08;;;;;;;20.83;10.52;;;;;;;14.15;87.01;102178.91;5068487;28;20033;-78
2022/06/17 02:21:40;;;;;;;22.45;11.15;;;;;;;14.14;87.08;102185.28;5065745;28;20556;-78
2022/06/17 02:24:06;;;;;;;21.98;11.10;;;;;;;14.17;87.08;102173.38;5067040;28;20440;-78
2022/06/17 02:26:34;;;;;;;23.05;10.68;;;;;;;14.13;86.96;102172.72;5067391;28;20082;-79
2022/06/17 02:29:04;;;;;;;22.45;11.63;;;;;;;14.16;86.48;102175.22;5067490;28;20029;-79
2022/06/17 02:31:30;;;;;;;22.17;10.80;;;;;;;14.16;86.81;102179.78;5065726;28;20060;-78
2022/06/17 02:33:56;;;;;;;21.92;10.88;;;;;;;14.18;86.68;102176.97;5061977;28;20095;-78
2022/06/17 02:36:34;;;;;;;22.10;11.38;;;;;;;14.22;86.55;102171.25;5068082;28;20132;-79
2022/06/17 02:39:00;;;;;;;24.70;12.00;;;;;;;14.22;86.11;102171.25;5069028;28;20029;-78
2022/06/17 02:41:28;;;;;;;22.35;11.68;;;;;;;14.23;85.33;102167.59;5067511;28;20062;-78
2022/06/17 02:44:21;;;;;;;22.02;11.15;;;;;;;14.29;84.93;102168.97;5066372;28;20074;-78
2022/06/17 02:46:48;;;;;;;23.98;12.40;;;;;;;14.26;84.79;102167.38;5082767;28;20381;-78
2022/06/17 02:49:20;;;;;;;22.90;11.65;;;;;;;14.27;85.03;102174.50;5071683;28;20051;-78
2022/06/17 02:51:46;;;;;;;23.13;12.43;;;;;;;14.32;84.55;102166.94;5068831;28;20107;-78
2022/06/17 02:54:27;;;;;;;21.80;11.77;;;;;;;14.35;84.71;102171.28;5071630;28;20442;-78
2022/06/17 02:56:55;;;;;;;23.45;12.30;;;;;;;14.34;84.88;102170.41;5073078;28;20032;-78
2022/06/17 02:59:28;;;;;;;22.20;11.93;;;;;;;14.37;84.46;102169.34;5072926;28;20431;-78
2022/06/17 03:01:59;;;;;;;27.67;11.90;;;;;;;14.39;84.19;102177.34;5063288;28;20128;-78
2022/06/17 03:04:29;;;;;;;22.35;11.50;;;;;;;14.39;83.22;102169.22;5072633;28;20063;-78
2022/06/17 03:06:56;;;;;;;23.95;12.45;;;;;;;14.39;83.19;102169.22;5070343;28;20029;-78
2022/06/17 03:09:27;;;;;;;22.48;12.80;;;;;;;14.40;83.19;102162.84;5068216;28;20020;-77
2022/06/17 03:12:02;;;;;;;23.27;11.90;;;;;;;14.40;83.27;102158.28;5071205;28;20433;-79
2022/06/17 03:14:33;;;;;;;22.45;12.25;;;;;;;14.39;82.22;102171.94;5069860;28;20033;-78
2022/06/17 03:17:02;;;;;;;22.75;11.63;;;;;;;14.37;83.75;102165.78;5068518;28;20024;-78
2022/06/17 03:19:29;;;;;;;22.43;12.30;;;;;;;14.36;82.41;102173.00;5069884;28;20063;-78
2022/06/17 03:21:55;;;;;;;23.80;12.20;;;;;;;14.34;83.32;102169.53;5068857;28;20495;-78
2022/06/17 03:24:26;;;;;;;22.90;12.13;;;;;;;14.32;83.02;102168.78;5072385;28;20048;-78
2022/06/17 03:27:01;;;;;;;23.58;12.07;;;;;;;14.33;82.81;102175.91;5070820;28;20119;-78
2022/06/17 03:29:28;;;;;;;22.50;12.43;;;;;;;14.32;83.23;102183.16;5073071;28;20025;-78
2022/06/17 03:32:01;;;;;;;24.58;13.15;;;;;;;14.30;83.41;102182.38;5071405;28;20115;-78
2022/06/17 03:34:40;;;;;;;22.45;13.02;;;;;;;14.35;83.21;102187.50;5072465;28;20024;-78
2022/06/17 03:37:13;;;;;;;22.98;13.43;;;;;;;14.37;83.26;102196.38;5071633;28;20571;-78
2022/06/17 03:39:41;;;;;;;23.15;12.70;;;;;;;14.41;83.55;102199.75;5065991;28;20533;-78
2022/06/17 03:42:13;;;;;;;26.23;13.88;;;;;;;14.46;81.96;102201.16;5071244;28;20060;-78
2022/06/17 03:44:49;;;;;;;25.17;13.18;;;;;;;14.54;83.35;102206.06;5072465;28;20135;-78
2022/06/17 03:47:24;;;;;;;24.77;13.52;;;;;;;14.56;84.42;102206.81;5068068;28;20034;-78
2022/06/17 03:49:56;;;;;;;24.08;14.68;;;;;;;14.60;83.51;102211.03;5068900;28;20123;-79
2022/06/17 03:52:43;;;;;;;24.02;13.95;;;;;;;14.63;83.39;102210.84;5072025;28;20040;-78
2022/06/17 03:55:20;;;;;;;26.17;14.00;;;;;;;14.63;84.52;102210.84;5061835;28;20036;-78
2022/06/17 03:57:49;;;;;;;23.83;13.93;;;;;;;14.64;84.25;102207.19;5072963;28;20392;-78
2022/06/17 04:00:22;;;;;;;24.42;14.05;;;;;;;14.69;84.47;102204.16;5067435;28;20033;-78
2022/06/17 04:02:49;;;;;;;22.83;13.57;;;;;;;14.74;84.25;102201.13;5068421;28;20033;-78
2022/06/17 04:05:16;;;;;;;23.63;14.38;;;;;;;14.77;84.17;102201.78;5072774;28;20062;-79
2022/06/17 04:07:42;;;;;;;25.73;14.75;;;;;;;14.84;84.65;102202.22;5072170;28;20036;-77
2022/06/17 04:10:13;;;;;;;26.08;13.75;;;;;;;14.87;85.03;102202.00;5067665;28;20063;-77
2022/06/17 04:12:38;;;;;;;22.60;14.15;;;;;;;14.92;85.01;102205.28;5068600;28;20395;-77
2022/06/17 04:15:21;;;;;;;23.35;14.55;;;;;;;14.99;83.75;102201.16;5070210;28;20115;-77
2022/06/17 04:17:48;;;;;;;23.80;14.45;;;;;;;15.06;82.37;102204.28;5060005;28;20440;-77
2022/06/17 04:20:31;;;;;;;26.75;15.50;;;;;;;15.11;82.17;102201.25;5068298;28;20031;-77
2022/06/17 04:23:02;;;;;;;23.63;14.18;;;;;;;15.18;83.01;102194.41;5071957;28;20500;-77
2022/06/17 04:25:59;;;;;;;24.20;14.40;;;;;;;15.25;81.31;102190.28;5071949;28;20032;-77
2022/06/17 04:28:30;;;;;;;24.20;14.60;;;;;;;15.30;81.79;102185.44;5051639;28;20037;-79
2022/06/17 04:31:00;;;;;;;22.65;13.70;;;;;;;15.34;83.10;102181.53;5068901;28;20024;-78
2022/06/17 04:33:28;;;;;;;25.00;14.68;;;;;;;15.40;80.67;102182.91;5071615;28;20032;-78
2022/06/17 04:36:29;;;;;;;25.35;15.35;;;;;;;15.47;79.60;102183.34;5070694;28;20028;-79
2022/06/17 04:39:00;;;;;;;26.08;13.77;;;;;;;15.52;82.50;102184.72;5067239;28;20051;-78
2022/06/17 04:41:31;;;;;;;23.77;14.27;;;;;;;15.57;83.27;102176.25;5065762;28;20024;-78
2022/06/17 04:43:59;;;;;;;26.63;15.02;;;;;;;15.61;79.79;102179.59;5070587;28;20028;-79
2022/06/17 04:46:34;;;;;;;24.85;14.25;;;;;;;15.65;79.48;102173.88;5070292;28;20031;-79
2022/06/17 04:49:01;;;;;;;23.77;13.70;;;;;;;15.69;78.69;102163.66;5067387;28;20130;-78
2022/06/17 04:51:29;;;;;;;23.40;14.05;;;;;;;15.72;76.55;102158.88;5055005;28;20021;-78
2022/06/17 04:53:55;;;;;;;23.77;13.18;;;;;;;15.77;77.30;102168.50;5066080;28;20477;-78
2022/06/17 04:56:32;;;;;;;23.40;13.48;;;;;;;15.84;76.94;102161.66;5071134;28;20024;-78
2022/06/17 04:58:58;;;;;;;23.88;12.95;;;;;;;15.89;75.63;102151.34;5067260;28;20068;-78
2022/06/17 05:01:24;;;;;;;22.60;12.30;;;;;;;15.94;75.07;102151.84;5068131;28;20024;-78
2022/06/17 05:03:53;;;;;;;29.20;12.05;;;;;;;16.01;74.54;102153.13;5068552;28;20036;-78
2022/06/17 05:06:19;;;;;;;22.02;11.18;;;;;;;16.07;74.11;102152.66;5068097;28;20082;-78
2022/06/17 05:08:50;;;;;;;21.92;11.02;;;;;;;16.14;74.35;102158.50;5067162;28;20028;-77
2022/06/17 05:11:39;;;;;;;20.73;10.27;;;;;;;16.20;74.90;102157.16;5059330;28;20025;-77
2022/06/17 05:14:17;;;;;;;23.77;11.48;;;;;;;16.24;74.07;102164.09;5059715;28;21190;-77
2022/06/17 05:16:42;;;;;;;22.55;11.02;;;;;;;16.29;73.71;102166.44;5060356;28;20112;-79
2022/06/17 05:19:07;;;;;;;22.48;10.80;;;;;;;16.33;73.22;102159.81;5058978;28;20107;-78
2022/06/17 05:21:33;;;;;;;24.50;10.52;;;;;;;16.34;73.78;102162.41;5061274;28;20032;-78
2022/06/17 05:23:59;;;;;;;21.95;11.63;;;;;;;16.39;73.51;102162.91;5055319;28;20053;-78
2022/06/17 05:26:24;;;;;;;21.67;10.75;;;;;;;16.42;74.41;102167.22;5055079;28;20112;-79
2022/06/17 05:28:51;;;;;;;24.33;9.85;;;;;;;16.48;73.30;102160.47;5060926;28;20028;-79
2022/06/17 05:31:19;;;;;;;26.08;12.38;;;;;;;16.52;73.78;102159.25;5059566;28;20119;-78
2022/06/17 05:33:49;;;;;;;24.27;11.60;;;;;;;16.57;74.08;102155.19;5066269;28;20024;-82
2022/06/17 05:36:15;;;;;;;22.20;11.00;;;;;;;16.62;73.71;102148.50;5059298;28;20302;-81
2022/06/17 05:38:42;;;;;;;23.98;10.68;;;;;;;16.67;74.85;102159.88;5057323;28;20056;-82
2022/06/17 05:41:14;;;;;;;21.05;10.52;;;;;;;16.72;74.11;102154.94;5059169;28;20060;-81
2022/06/17 05:43:39;;;;;;;23.95;11.82;;;;;;;16.76;74.00;102154.63;5056814;28;20119;-81
2022/06/17 05:46:04;;;;;;;22.33;10.82;;;;;;;16.80;73.45;102155.22;5067330;28;20039;-81
2022/06/17 05:48:30;;;;;;;25.85;11.93;;;;;;;16.84;73.06;102161.25;5061439;28;20067;-80
2022/06/17 05:50:55;;;;;;;24.00;11.38;;;;;;;16.87;71.66;102147.47;5064578;28;20024;-80
2022/06/17 05:53:20;;;;;;;20.67;10.52;;;;;;;16.90;71.62;102139.09;5067650;28;20032;-80
2022/06/17 05:55:46;;;;;;;21.52;11.50;;;;;;;16.94;71.85;102138.72;5065324;28;20431;-80
2022/06/17 05:58:11;;;;;;;26.90;11.50;;;;;;;16.97;71.37;102143.06;5063314;28;20446;-80
2022/06/17 06:00:36;;;;;;;21.35;9.45;;;;;;;17.01;70.29;102136.38;5063145;28;20036;-80
2022/06/17 06:03:05;;;;;;;23.25;10.70;;;;;;;17.05;72.98;102135.13;5066444;28;20545;-81
2022/06/17 06:05:33;;;;;;;19.83;10.27;;;;;;;17.09;73.63;102142.06;5063674;28;20134;-80
2022/06/17 06:07:58;;;;;;;22.40;10.85;;;;;;;17.12;71.00;102133.66;5066903;28;20080;-79
2022/06/17 06:10:24;;;;;;;23.80;10.63;;;;;;;17.17;70.91;102118.84;5065639;28;20115;-79
2022/06/17 06:12:53;;;;;;;27.88;10.75;;;;;;;17.21;69.33;102133.91;5067551;28;20036;-80
2022/06/17 06:15:19;;;;;;;21.80;8.87;;;;;;;17.24;67.91;102130.94;5056198;28;20075;-80
2022/06/17 06:17:45;;;;;;;21.42;8.82;;;;;;;17.28;70.24;102133.28;5067273;28;20359;-80
2022/06/17 06:20:11;;;;;;;21.13;8.73;;;;;;;17.31;70.18;102129.47;5068825;28;20099;-80
2022/06/17 06:22:37;;;;;;;18.73;8.90;;;;;;;17.35;69.16;102122.78;5067119;28;20028;-80
2022/06/17 06:25:02;;;;;;;20.05;8.70;;;;;;;17.39;67.48;102123.38;5066163;28;20070;-80
2022/06/17 06:27:27;;;;;;;20.67;9.00;;;;;;;17.43;69.60;102128.44;5054326;28;20024;-80
2022/06/17 06:29:53;;;;;;;22.83;9.23;;;;;;;17.48;70.01;102133.50;5056895;28;20058;-80
2022/06/17 06:32:18;;;;;;;20.08;8.70;;;;;;;17.52;69.54;102136.84;5056238;28;20029;-80
2022/06/17 06:34:43;;;;;;;21.77;8.02;;;;;;;17.56;70.03;102143.75;5059160;28;20071;-80
2022/06/17 06:37:09;;;;;;;25.40;8.60;;;;;;;17.60;68.85;102137.94;5051647;28;20059;-80
2022/06/17 06:39:34;;;;;;;21.00;8.00;;;;;;;17.64;69.10;102153.00;5058562;28;20021;-80
2022/06/17 06:42:00;;;;;;;20.80;8.15;;;;;;;17.70;68.21;102151.63;5057831;28;20085;-80
2022/06/17 06:44:25;;;;;;;21.08;8.75;;;;;;;17.71;68.85;102150.63;5056815;28;20039;-80
2022/06/17 06:46:50;;;;;;;20.27;8.77;;;;;;;17.75;68.12;102152.09;5054222;28;20032;-80
2022/06/17 06:49:15;;;;;;;19.50;8.32;;;;;;;17.78;67.21;102149.13;5056444;28;20389;-80
2022/06/17 06:51:41;;;;;;;18.63;7.70;;;;;;;17.79;69.06;102145.41;5066786;28;20059;-80
2022/06/17 06:54:06;;;;;;;17.80;8.10;;;;;;;17.84;69.86;102149.63;5062503;28;20032;-80
2022/06/17 06:56:31;;;;;;;20.00;8.45;;;;;;;17.91;68.73;102151.72;5060173;28;20041;-80
2022/06/17 06:58:57;;;;;;;21.70;8.60;;;;;;;17.95;68.37;102147.75;5048653;28;20028;-80
2022/06/17 07:01:22;;;;;;;20.10;8.60;;;;;;;18.02;69.16;102161.69;5058439;28;20530;-80
2022/06/17 07:03:47;;;;;;;18.17;7.70;;;;;;;18.09;69.22;102159.31;5058813;28;20029;-80
2022/06/17 07:06:13;;;;;;;18.60;8.10;;;;;;;18.19;68.30;102165.72;5063991;28;20029;-80
2022/06/17 07:08:38;;;;;;;18.35;7.35;;;;;;;18.25;67.95;102159.75;5060647;28;20356;-79
2022/06/17 07:11:07;;;;;;;17.45;6.90;;;;;;;18.36;66.16;102156.13;5054209;28;20052;-79
2022/06/17 07:13:33;;;;;;;19.45;8.20;;;;;;;18.41;65.95;102148.41;5063841;28;20063;-79
2022/06/17 07:15:59;;;;;;;19.73;7.47;;;;;;;18.51;63.04;102137.59;5057099;28;20108;-79
2022/06/17 07:18:30;;;;;;;18.17;7.28;;;;;;;18.57;65.07;102138.91;5058265;28;20028;-80
2022/06/17 07:20:59;;;;;;;19.05;6.70;;;;;;;18.57;64.75;102147.09;5059245;28;20102;-80
2022/06/17 07:23:34;;;;;;;19.00;7.35;;;;;;;18.63;64.70;102143.81;5047811;28;20081;-79
2022/06/17 07:26:02;;;;;;;20.00;7.20;;;;;;;18.71;64.43;102141.28;5056154;28;20048;-79
2022/06/17 07:28:27;;;;;;;17.85;7.05;;;;;;;18.76;64.39;102147.19;5057142;28;20460;-80
2022/06/17 07:30:54;;;;;;;15.70;6.35;;;;;;;18.84;64.87;102144.69;5050871;28;20608;-79
2022/06/17 07:33:22;;;;;;;18.95;7.35;;;;;;;18.88;64.04;102147.16;5056097;28;20021;-79
2022/06/17 07:35:49;;;;;;;15.85;6.57;;;;;;;18.98;63.03;102148.06;5062284;28;20476;-79
2022/06/17 07:41:04;;;;;;;17.98;6.95;;;;;;;19.06;63.19;102136.47;5052041;28;20043;-79
2022/06/17 07:43:30;;;;;;;17.55;7.10;;;;;;;19.10;62.77;102140.66;5051033;28;20404;-80
2022/06/17 07:45:55;;;;;;;17.08;7.10;;;;;;;19.15;63.41;102146.53;5056493;28;20042;-80
2022/06/17 07:48:22;;;;;;;16.40;6.53;;;;;;;19.18;61.75;102155.31;5056980;28;20024;-79
2022/06/17 07:50:47;;;;;;;16.90;6.93;;;;;;;19.21;61.65;102146.88;5064559;28;20056;-79
2022/06/17 07:53:13;;;;;;;23.15;7.05;;;;;;;19.28;61.18;102151.75;5070415;28;20059;-79
2022/06/17 07:55:40;;;;;;;17.75;6.05;;;;;;;19.33;62.89;102144.06;5067102;28;20491;-78
2022/06/17 07:58:06;;;;;;;14.68;5.32;;;;;;;19.31;62.69;102152.38;5056869;28;20053;-78
2022/06/17 08:00:38;;;;;;;18.70;5.90;;;;;;;19.38;61.89;102147.22;5051916;28;20439;-77
2022/06/17 08:03:05;;;;;;;15.93;5.88;;;;;;;19.38;60.02;102142.59;5060196;28;20430;-78
2022/06/17 08:05:31;;;;;;;15.52;5.38;;;;;;;19.40;63.78;102145.22;5066366;28;20155;-78
2022/06/17 08:07:57;;;;;;;14.27;5.13;;;;;;;19.51;61.38;102157.88;5070587;28;20056;-78
2022/06/17 08:10:26;;;;;;;16.98;5.60;;;;;;;19.53;59.79;102154.00;5069629;28;20059;-78
2022/06/17 08:12:51;;;;;;;14.90;5.22;;;;;;;19.54;62.57;102160.31;5068471;28;20052;-78
2022/06/17 08:15:18;;;;;;;13.90;5.15;;;;;;;19.59;60.75;102160.78;5060535;28;20094;-78
2022/06/17 08:17:43;;;;;;;14.05;5.10;;;;;;;19.64;62.74;102161.19;5064762;28;20060;-80
2022/06/17 08:20:20;;;;;;;15.32;4.60;;;;;;;19.67;62.48;102162.78;5069393;28;20059;-80
2022/06/17 08:22:45;;;;;;;13.38;5.05;;;;;;;19.71;62.17;102170.56;5069045;28;20078;-80
2022/06/17 08:25:11;;;;;;;17.60;5.78;;;;;;;19.79;59.47;102169.88;5069649;28;20283;-80
2022/06/17 08:27:56;;;;;;;13.85;5.13;;;;;;;19.92;59.43;102166.03;5072175;28;20387;-79
2022/06/17 08:30:28;;;;;;;13.20;5.55;;;;;;;19.98;58.69;102160.00;5071222;28;20377;-79
2022/06/17 08:32:55;;;;;;;12.95;4.68;;;;;;;20.15;58.99;102151.09;5065214;28;20562;-80
2022/06/17 08:35:30;;;;;;;14.02;4.95;;;;;;;20.21;58.12;102141.47;5070033;28;20024;-81
2022/06/17 08:38:00;;;;;;;12.02;4.60;;;;;;;20.30;57.06;102137.00;5072110;28;20033;-80
2022/06/17 08:40:48;;;;;;;16.08;4.95;;;;;;;20.45;56.74;102127.34;5069881;28;20116;-79
2022/06/17 08:43:36;;;;;;;12.88;4.63;;;;;;;20.53;57.57;102123.91;5071263;28;20431;-79
2022/06/17 08:46:34;;;;;;;16.00;4.88;;;;;;;20.64;57.41;102128.31;5051415;28;20079;-79
2022/06/17 08:49:18;;;;;;;14.52;4.82;;;;;;;20.60;55.17;102131.34;5063265;28;20040;-81
2022/06/17 08:52:17;;;;;;;11.05;4.53;;;;;;;20.65;56.68;102146.44;5070132;28;20098;-82
2022/06/17 08:55:39;;;;;;;13.80;4.35;;;;;;;20.71;56.83;102143.16;5071192;28;20032;-79
2022/06/17 08:58:36;;;;;;;16.30;5.40;;;;;;;20.78;57.31;102147.88;5029890;28;20036;-81
2022/06/17 09:01:30;;;;;;;13.20;4.63;;;;;;;20.89;54.54;102155.00;5021984;28;20083;-75
2022/06/17 09:04:23;;;;;;;15.30;4.90;;;;;;;20.96;54.87;102149.84;5049404;28;20083;-79
2022/06/17 09:07:00;;;;;;;14.68;6.07;;;;;;;21.05;53.91;102157.13;5048551;28;20488;-81
2022/06/17 09:09:52;;;;;;;11.50;4.57;;;;;;;21.07;54.94;102154.25;5030105;28;20516;-81
2022/06/17 09:13:08;;;;;;;15.07;4.70;;;;;;;21.12;55.54;102149.19;5049559;28;20040;-77
2022/06/17 09:16:15;;;;;;;14.13;4.60;;;;;;;21.25;54.00;102138.78;5031811;28;20134;-76
2022/06/17 09:18:48;;;;;;;17.05;5.25;;;;;;;21.39;52.66;102137.41;5029504;28;20029;-76
2022/06/17 09:21:17;;;;;;;13.52;5.18;;;;;;;21.43;53.55;102136.06;5033921;28;20040;-75
2022/06/17 09:23:43;;;;;;;;;;;;;;;21.41;54.61;102143.59;5049884;28;20049;-75
2022/06/17 09:26:16;;;;;;;14.30;5.03;;;;;;;21.58;52.88;102146.53;5048588;28;20010;-76
2022/06/17 09:28:48;;;;;;;15.20;5.95;;;;;;;21.64;52.18;102149.53;5055064;28;20163;-77
2022/06/17 09:31:20;;;;;;;13.60;4.72;;;;;;;21.63;53.22;102145.06;5070605;28;20036;-75
2022/06/17 09:34:00;;;;;;;12.10;4.15;;;;;;;21.61;53.71;102143.50;5067891;28;20047;-75
2022/06/17 09:36:54;;;;;;;15.48;4.90;;;;;;;21.69;54.04;102140.00;5071111;28;20504;-75
2022/06/17 09:39:29;;;;;;;16.10;5.47;;;;;;;21.75;55.66;102142.97;5066802;28;20029;-80
2022/06/17 09:42:06;;;;;;;14.40;4.78;;;;;;;21.68;55.20;102139.13;5069429;28;20075;-78
2022/06/17 09:44:40;;;;;;;18.00;5.70;;;;;;;21.85;53.37;102140.16;5068655;28;20127;-79
2022/06/17 09:47:12;;;;;;;11.25;4.68;;;;;;;21.89;53.12;102135.22;5068470;28;20036;-79
2022/06/17 09:49:51;;;;;;;11.20;4.50;;;;;;;21.87;54.72;102142.75;5064555;28;20119;-78
2022/06/17 09:52:30;;;;;;;10.20;4.75;;;;;;;21.90;54.36;102137.81;5056393;28;20542;-79
2022/06/17 09:55:05;;;;;;;14.32;5.05;;;;;;;21.96;53.68;102145.44;5070520;28;20526;-78
2022/06/17 09:57:55;;;;;;;17.15;5.43;;;;;;;21.96;54.87;102129.00;5068990;28;20036;-79
2022/06/17 10:00:25;;;;;;;16.05;5.07;;;;;;;22.02;52.00;102138.44;5071221;28;20029;-77
2022/06/17 10:03:12;;;;;;;12.45;4.32;;;;;;;22.03;54.25;102131.09;5066494;28;20028;-74
2022/06/17 10:05:52;;;;;;;10.98;4.20;;;;;;;22.23;50.26;102123.59;5070170;28;20032;-74
2022/06/17 10:08:26;;;;;;;11.90;4.40;;;;;;;22.23;52.57;102116.22;5067279;28;20086;-74
2022/06/17 10:10:56;;;;;;;13.70;4.43;;;;;;;22.41;51.22;102121.69;5061698;28;20441;-74
2022/06/17 10:13:30;;;;;;;11.77;4.30;;;;;;;22.49;48.25;102105.31;5050870;28;20451;-74
2022/06/17 10:18:55;;;;;;;10.60;4.55;;;;;;;22.62;50.13;102104.91;5051630;28;20162;-74
2022/06/17 10:21:40;;;;;;;9.23;4.00;;;;;;;22.68;50.28;102104.25;5070255;28;20024;-74
2022/06/17 10:24:47;;;;;;;9.27;4.20;;;;;;;22.81;49.82;102095.59;5062298;28;21154;-74
2022/06/17 10:27:41;;;;;;;11.13;3.78;;;;;;;22.82;49.12;102093.69;5046253;28;20052;-74
2022/06/17 10:30:12;;;;;;;12.80;3.67;;;;;;;22.95;47.78;102096.84;5028691;28;20140;-74
2022/06/17 10:32:42;;;;;;;8.02;3.58;;;;;;;22.85;50.72;102101.59;5046500;28;20591;-74
2022/06/17 10:35:17;;;;;;;7.78;3.40;;;;;;;22.78;51.35;102098.66;5029710;28;20021;-74
2022/06/17 10:37:43;;;;;;;10.93;4.10;;;;;;;22.95;50.75;102098.72;5029718;28;20532;-74
2022/06/17 10:40:10;;;;;;;11.13;3.90;;;;;;;22.95;46.26;102102.31;5040034;28;20167;-74
2022/06/17 10:42:36;;;;;;;9.82;4.05;;;;;;;23.04;45.41;102090.38;5028814;28;20033;-74
2022/06/17 10:45:01;;;;;;;14.80;4.38;;;;;;;23.09;47.98;102100.88;5028433;28;20076;-74
2022/06/17 10:47:47;;;;;;;9.38;4.15;;;;;;;23.01;46.77;102100.81;5012176;28;20030;-73
2022/06/17 10:50:19;;;;;;;10.10;4.18;;;;;;;23.20;48.50;102092.34;5025030;28;20136;-74
2022/06/17 10:53:00;;;;;;;10.60;4.25;;;;;;;23.28;46.85;102094.28;5039903;28;20060;-74
2022/06/17 10:55:31;;;;;;;10.25;3.53;;;;;;;23.23;45.76;102088.41;5048524;28;20122;-74
2022/06/17 10:58:13;;;;;;;9.10;4.03;;;;;;;23.32;45.35;102086.56;5047185;28;20040;-74
2022/06/17 11:00:53;;;;;;;8.85;3.70;;;;;;;23.30;47.97;102085.88;5037584;28;20150;-74
2022/06/17 11:03:31;;;;;;;10.30;4.15;;;;;;;23.31;48.18;102082.09;5036628;28;20053;-74
2022/06/17 11:06:08;;;;;;;6.97;3.40;;;;;;;23.28;47.60;102080.56;5054749;28;20062;-74
2022/06/17 11:08:56;;;;;;;6.10;3.30;;;;;;;23.31;46.90;102073.88;5057521;28;20012;-74
2022/06/17 11:14:29;;;;;;;9.85;4.38;;;;;;;23.35;46.38;102062.41;5073136;28;20150;-75
2022/06/17 11:16:54;;;;;;;8.80;3.70;;;;;;;23.37;46.81;102054.88;5073391;28;20016;-75
2022/06/17 11:19:23;;;;;;;8.60;3.75;;;;;;;23.44;49.42;102059.69;5068113;28;20033;-74
2022/06/17 11:21:57;;;;;;;9.13;3.67;;;;;;;23.44;48.23;102054.19;5071311;28;20022;-74
2022/06/17 11:24:27;;;;;;;9.75;3.70;;;;;;;23.44;49.37;102045.97;5071404;28;20122;-74
2022/06/17 11:27:13;;;;;;;7.60;3.55;;;;;;;23.49;48.66;102046.31;5064341;28;20028;-74
2022/06/17 11:29:44;;;;;;;8.07;3.83;;;;;;;23.60;47.61;102045.97;5069771;28;20056;-72
2022/06/17 11:32:32;;;;;;;9.07;3.75;;;;;;;23.57;48.63;102038.09;5071875;28;20063;-72
2022/06/17 11:35:01;;;;;;;8.23;3.73;;;;;;;23.60;46.21;102031.41;5073081;28;20111;-73
2022/06/17 11:37:32;;;;;;;;;;;;;;;23.54;48.83;102043.91;5071334;28;20029;-72
2022/06/17 11:40:07;;;;;;;9.35;3.95;;;;;;;23.66;47.75;102038.94;5073791;28;19955;-72
2022/06/17 11:42:33;;;;;;;11.00;3.78;;;;;;;23.76;45.14;102038.78;5058686;28;20107;-71
2022/06/17 11:45:05;;;;;;;11.70;3.83;;;;;;;23.74;44.88;102031.56;5052246;28;20457;-71
2022/06/17 11:47:32;;;;;;;6.22;3.70;;;;;;;23.76;45.69;102027.81;5066774;28;20036;-71